sensor_id;sensor_type;location;lat;lon;timestamp;pressure;altitude;pressure_sealevel;temperature
11321;BMP180;5715;48.234;14.320;2023-04-25T00:01:30;97947.00;;;14.90
11321;BMP180;5715;48.234;14.320;2023-04-25T00:04:17;97951.00;;;14.90
11321;BMP180;5715;48.234;14.320;2023-04-25T00:07:05;97958.00;;;14.90
11321;BMP180;5715;48.234;14.320;2023-04-25T00:09:53;97953.00;;;14.90
11321;BMP180;5715;48.234;14.320;2023-04-25T00:12:41;97954.00;;;14.90
11321;BMP180;5715;48.234;14.320;2023-04-25T00:15:29;97956.00;;;14.80
11321;BMP180;5715;48.234;14.320;2023-04-25T00:18:17;97943.00;;;14.70
11321;BMP180;5715;48.234;14.320;2023-04-25T00:21:06;97943.00;;;14.70
11321;BMP180;5715;48.234;14.320;2023-04-25T00:23:54;97949.00;;;14.60
11321;BMP180;5715;48.234;14.320;2023-04-25T00:26:42;97953.00;;;14.60
11321;BMP180;5715;48.234;14.320;2023-04-25T00:29:29;97946.00;;;14.60
11321;BMP180;5715;48.234;14.320;2023-04-25T00:32:17;97945.00;;;14.50
11321;BMP180;5715;48.234;14.320;2023-04-25T00:35:05;97943.00;;;14.60
11321;BMP180;5715;48.234;14.320;2023-04-25T00:37:54;97946.00;;;14.50
11321;BMP180;5715;48.234;14.320;2023-04-25T00:40:42;97946.00;;;14.60
11321;BMP180;5715;48.234;14.320;2023-04-25T00:43:32;97941.00;;;14.60
11321;BMP180;5715;48.234;14.320;2023-04-25T00:46:20;97938.00;;;14.50
11321;BMP180;5715;48.234;14.320;2023-04-25T00:49:07;97940.00;;;14.50
11321;BMP180;5715;48.234;14.320;2023-04-25T00:51:56;97938.00;;;14.50
11321;BMP180;5715;48.234;14.320;2023-04-25T00:54:43;97934.00;;;14.50
11321;BMP180;5715;48.234;14.320;2023-04-25T00:57:31;97926.00;;;14.50
11321;BMP180;5715;48.234;14.320;2023-04-25T01:00:20;97931.00;;;14.50
11321;BMP180;5715;48.234;14.320;2023-04-25T01:03:08;97934.00;;;14.40
11321;BMP180;5715;48.234;14.320;2023-04-25T01:05:55;97928.00;;;14.40
11321;BMP180;5715;48.234;14.320;2023-04-25T01:08:43;97925.00;;;14.30
11321;BMP180;5715;48.234;14.320;2023-04-25T01:11:31;97914.00;;;14.30
11321;BMP180;5715;48.234;14.320;2023-04-25T01:14:19;97915.00;;;14.30
11321;BMP180;5715;48.234;14.320;2023-04-25T01:17:07;97918.00;;;14.30
11321;BMP180;5715;48.234;14.320;2023-04-25T01:19:56;97916.00;;;14.20
11321;BMP180;5715;48.234;14.320;2023-04-25T01:22:43;97917.00;;;14.20
11321;BMP180;5715;48.234;14.320;2023-04-25T01:25:32;97917.00;;;14.30
11321;BMP180;5715;48.234;14.320;2023-04-25T01:28:20;97918.00;;;14.30
11321;BMP180;5715;48.234;14.320;2023-04-25T01:31:08;97911.00;;;14.20
11321;BMP180;5715;48.234;14.320;2023-04-25T01:33:56;97918.00;;;14.10
11321;BMP180;5715;48.234;14.320;2023-04-25T01:36:44;97906.00;;;14.10
11321;BMP180;5715;48.234;14.320;2023-04-25T01:39:32;97902.00;;;14.10
11321;BMP180;5715;48.234;14.320;2023-04-25T01:42:19;97898.00;;;14.10
11321;BMP180;5715;48.234;14.320;2023-04-25T01:45:09;97903.00;;;14.10
11321;BMP180;5715;48.234;14.320;2023-04-25T01:47:57;97900.00;;;14.10
11321;BMP180;5715;48.234;14.320;2023-04-25T01:50:46;97902.00;;;14.10
11321;BMP180;5715;48.234;14.320;2023-04-25T01:53:34;97905.00;;;14.20
11321;BMP180;5715;48.234;14.320;2023-04-25T01:56:21;97898.00;;;14.10
11321;BMP180;5715;48.234;14.320;2023-04-25T01:59:09;97890.00;;;14.10
11321;BMP180;5715;48.234;14.320;2023-04-25T02:01:56;97886.00;;;14.20
11321;BMP180;5715;48.234;14.320;2023-04-25T02:04:44;97884.00;;;14.20
11321;BMP180;5715;48.234;14.320;2023-04-25T02:07:32;97897.00;;;14.40
11321;BMP180;5715;48.234;14.320;2023-04-25T02:10:20;97891.00;;;14.40
11321;BMP180;5715;48.234;14.320;2023-04-25T02:13:07;97891.00;;;14.30
11321;BMP180;5715;48.234;14.320;2023-04-25T02:15:55;97875.00;;;14.40
11321;BMP180;5715;48.234;14.320;2023-04-25T02:18:42;97880.00;;;14.60
11321;BMP180;5715;48.234;14.320;2023-04-25T02:21:32;97877.00;;;14.50
11321;BMP180;5715;48.234;14.320;2023-04-25T02:24:20;97872.00;;;14.50
11321;BMP180;5715;48.234;14.320;2023-04-25T02:27:07;97865.00;;;14.50
11321;BMP180;5715;48.234;14.320;2023-04-25T02:29:55;97864.00;;;14.60
11321;BMP180;5715;48.234;14.320;2023-04-25T02:32:43;97862.00;;;14.70
11321;BMP180;5715;48.234;14.320;2023-04-25T02:35:30;97869.00;;;14.70
11321;BMP180;5715;48.234;14.320;2023-04-25T02:38:18;97883.00;;;14.60
11321;BMP180;5715;48.234;14.320;2023-04-25T02:41:05;97883.00;;;14.60
11321;BMP180;5715;48.234;14.320;2023-04-25T02:43:53;97880.00;;;14.50
11321;BMP180;5715;48.234;14.320;2023-04-25T02:46:40;97881.00;;;14.40
11321;BMP180;5715;48.234;14.320;2023-04-25T02:49:28;97869.00;;;14.40
11321;BMP180;5715;48.234;14.320;2023-04-25T02:52:15;97866.00;;;14.30
11321;BMP180;5715;48.234;14.320;2023-04-25T02:55:03;97865.00;;;14.30
11321;BMP180;5715;48.234;14.320;2023-04-25T02:57:51;97861.00;;;14.20
11321;BMP180;5715;48.234;14.320;2023-04-25T03:00:39;97854.00;;;14.10
11321;BMP180;5715;48.234;14.320;2023-04-25T03:03:26;97851.00;;;14.00
11321;BMP180;5715;48.234;14.320;2023-04-25T03:06:14;97848.00;;;14.00
11321;BMP180;5715;48.234;14.320;2023-04-25T03:09:03;97858.00;;;14.10
11321;BMP180;5715;48.234;14.320;2023-04-25T03:11:51;97859.00;;;14.00
11321;BMP180;5715;48.234;14.320;2023-04-25T03:14:38;97852.00;;;14.00
11321;BMP180;5715;48.234;14.320;2023-04-25T03:17:26;97850.00;;;13.90
11321;BMP180;5715;48.234;14.320;2023-04-25T03:20:13;97839.00;;;14.00
11321;BMP180;5715;48.234;14.320;2023-04-25T03:23:01;97848.00;;;13.90
11321;BMP180;5715;48.234;14.320;2023-04-25T03:25:48;97845.00;;;13.80
11321;BMP180;5715;48.234;14.320;2023-04-25T03:28:36;97855.00;;;13.70
11321;BMP180;5715;48.234;14.320;2023-04-25T03:31:23;97842.00;;;13.70
11321;BMP180;5715;48.234;14.320;2023-04-25T03:34:11;97841.00;;;13.60
11321;BMP180;5715;48.234;14.320;2023-04-25T03:36:59;97838.00;;;13.60
11321;BMP180;5715;48.234;14.320;2023-04-25T03:39:47;97829.00;;;13.60
11321;BMP180;5715;48.234;14.320;2023-04-25T03:42:34;97833.00;;;13.50
11321;BMP180;5715;48.234;14.320;2023-04-25T03:45:22;97829.00;;;13.50
11321;BMP180;5715;48.234;14.320;2023-04-25T03:48:11;97828.00;;;13.50
11321;BMP180;5715;48.234;14.320;2023-04-25T03:50:58;97831.00;;;13.50
11321;BMP180;5715;48.234;14.320;2023-04-25T03:53:47;97841.00;;;13.40
11321;BMP180;5715;48.234;14.320;2023-04-25T03:56:35;97837.00;;;13.50
11321;BMP180;5715;48.234;14.320;2023-04-25T03:59:23;97845.00;;;13.50
11321;BMP180;5715;48.234;14.320;2023-04-25T04:02:12;97844.00;;;13.50
11321;BMP180;5715;48.234;14.320;2023-04-25T04:05:00;97847.00;;;13.50
11321;BMP180;5715;48.234;14.320;2023-04-25T04:07:47;97847.00;;;13.50
11321;BMP180;5715;48.234;14.320;2023-04-25T04:10:35;97843.00;;;13.50
11321;BMP180;5715;48.234;14.320;2023-04-25T04:13:23;97845.00;;;13.50
11321;BMP180;5715;48.234;14.320;2023-04-25T04:16:10;97850.00;;;13.60
11321;BMP180;5715;48.234;14.320;2023-04-25T04:18:58;97846.00;;;13.70
11321;BMP180;5715;48.234;14.320;2023-04-25T04:21:45;97843.00;;;13.90
11321;BMP180;5715;48.234;14.320;2023-04-25T04:24:33;97842.00;;;14.10
11321;BMP180;5715;48.234;14.320;2023-04-25T04:27:22;97843.00;;;14.30
11321;BMP180;5715;48.234;14.320;2023-04-25T04:30:10;97844.00;;;14.40
11321;BMP180;5715;48.234;14.320;2023-04-25T04:32:58;97843.00;;;14.70
11321;BMP180;5715;48.234;14.320;2023-04-25T04:35:46;97853.00;;;14.90
11321;BMP180;5715;48.234;14.320;2023-04-25T04:38:34;97847.00;;;15.10
11321;BMP180;5715;48.234;14.320;2023-04-25T04:41:22;97845.00;;;15.40
11321;BMP180;5715;48.234;14.320;2023-04-25T04:44:09;97846.00;;;15.90
11321;BMP180;5715;48.234;14.320;2023-04-25T04:46:58;97854.00;;;16.90
11321;BMP180;5715;48.234;14.320;2023-04-25T04:49:46;97859.00;;;17.70
11321;BMP180;5715;48.234;14.320;2023-04-25T04:52:34;97853.00;;;18.30
11321;BMP180;5715;48.234;14.320;2023-04-25T04:55:22;97847.00;;;18.70
11321;BMP180;5715;48.234;14.320;2023-04-25T04:58:09;97841.00;;;19.30
11321;BMP180;5715;48.234;14.320;2023-04-25T05:00:57;97838.00;;;19.80
11321;BMP180;5715;48.234;14.320;2023-04-25T05:03:44;97830.00;;;19.30
11321;BMP180;5715;48.234;14.320;2023-04-25T05:06:32;97840.00;;;19.20
11321;BMP180;5715;48.234;14.320;2023-04-25T05:09:20;97839.00;;;19.00
11321;BMP180;5715;48.234;14.320;2023-04-25T05:12:07;97843.00;;;18.80
11321;BMP180;5715;48.234;14.320;2023-04-25T05:14:54;97842.00;;;18.30
11321;BMP180;5715;48.234;14.320;2023-04-25T05:17:42;97832.00;;;18.90
11321;BMP180;5715;48.234;14.320;2023-04-25T05:20:29;97843.00;;;19.50
11321;BMP180;5715;48.234;14.320;2023-04-25T05:23:17;97839.00;;;20.60
11321;BMP180;5715;48.234;14.320;2023-04-25T05:26:05;97840.00;;;21.00
11321;BMP180;5715;48.234;14.320;2023-04-25T05:28:52;97830.00;;;21.30
11321;BMP180;5715;48.234;14.320;2023-04-25T05:31:40;97824.00;;;21.20
11321;BMP180;5715;48.234;14.320;2023-04-25T05:34:28;97828.00;;;21.40
11321;BMP180;5715;48.234;14.320;2023-04-25T05:37:15;97829.00;;;22.70
11321;BMP180;5715;48.234;14.320;2023-04-25T05:40:04;97820.00;;;22.60
11321;BMP180;5715;48.234;14.320;2023-04-25T05:42:53;97814.00;;;21.80
11321;BMP180;5715;48.234;14.320;2023-04-25T05:45:41;97826.00;;;21.60
11321;BMP180;5715;48.234;14.320;2023-04-25T05:48:29;97817.00;;;20.70
11321;BMP180;5715;48.234;14.320;2023-04-25T05:51:17;97818.00;;;20.00
11321;BMP180;5715;48.234;14.320;2023-04-25T05:54:05;97824.00;;;19.60
11321;BMP180;5715;48.234;14.320;2023-04-25T05:56:53;97827.00;;;19.00
11321;BMP180;5715;48.234;14.320;2023-04-25T05:59:40;97829.00;;;18.70
11321;BMP180;5715;48.234;14.320;2023-04-25T06:02:28;97835.00;;;18.90
11321;BMP180;5715;48.234;14.320;2023-04-25T06:05:15;97837.00;;;18.60
11321;BMP180;5715;48.234;14.320;2023-04-25T06:08:03;97835.00;;;19.00
11321;BMP180;5715;48.234;14.320;2023-04-25T06:10:51;97836.00;;;19.20
11321;BMP180;5715;48.234;14.320;2023-04-25T06:13:38;97837.00;;;19.30
11321;BMP180;5715;48.234;14.320;2023-04-25T06:16:26;97833.00;;;19.40
11321;BMP180;5715;48.234;14.320;2023-04-25T06:19:13;97837.00;;;19.50
11321;BMP180;5715;48.234;14.320;2023-04-25T06:22:02;97828.00;;;19.40
11321;BMP180;5715;48.234;14.320;2023-04-25T06:24:49;97822.00;;;19.00
11321;BMP180;5715;48.234;14.320;2023-04-25T06:27:37;97834.00;;;19.20
11321;BMP180;5715;48.234;14.320;2023-04-25T06:30:25;97822.00;;;19.20
11321;BMP180;5715;48.234;14.320;2023-04-25T06:33:13;97824.00;;;19.80
11321;BMP180;5715;48.234;14.320;2023-04-25T06:36:00;97820.00;;;19.60
11321;BMP180;5715;48.234;14.320;2023-04-25T06:38:48;97816.00;;;19.80
11321;BMP180;5715;48.234;14.320;2023-04-25T06:41:36;97817.00;;;19.30
11321;BMP180;5715;48.234;14.320;2023-04-25T06:44:23;97815.00;;;19.60
11321;BMP180;5715;48.234;14.320;2023-04-25T06:47:14;97808.00;;;19.70
11321;BMP180;5715;48.234;14.320;2023-04-25T06:50:01;97806.00;;;19.90
11321;BMP180;5715;48.234;14.320;2023-04-25T06:52:49;97802.00;;;19.90
11321;BMP180;5715;48.234;14.320;2023-04-25T06:55:36;97804.00;;;20.40
11321;BMP180;5715;48.234;14.320;2023-04-25T06:58:24;97797.00;;;20.60
11321;BMP180;5715;48.234;14.320;2023-04-25T07:01:13;97795.00;;;20.60
11321;BMP180;5715;48.234;14.320;2023-04-25T07:04:01;97799.00;;;20.50
11321;BMP180;5715;48.234;14.320;2023-04-25T07:06:49;97791.00;;;20.80
11321;BMP180;5715;48.234;14.320;2023-04-25T07:09:37;97793.00;;;20.40
11321;BMP180;5715;48.234;14.320;2023-04-25T07:12:24;97796.00;;;20.80
11321;BMP180;5715;48.234;14.320;2023-04-25T07:15:13;97795.00;;;20.70
11321;BMP180;5715;48.234;14.320;2023-04-25T07:18:01;97796.00;;;20.80
11321;BMP180;5715;48.234;14.320;2023-04-25T07:20:49;97798.00;;;20.80
11321;BMP180;5715;48.234;14.320;2023-04-25T07:23:36;97789.00;;;20.70
11321;BMP180;5715;48.234;14.320;2023-04-25T07:26:24;97785.00;;;20.60
11321;BMP180;5715;48.234;14.320;2023-04-25T07:29:13;97793.00;;;21.10
11321;BMP180;5715;48.234;14.320;2023-04-25T07:32:00;97794.00;;;21.30
11321;BMP180;5715;48.234;14.320;2023-04-25T07:34:48;97798.00;;;21.20
11321;BMP180;5715;48.234;14.320;2023-04-25T07:37:36;97790.00;;;20.60
11321;BMP180;5715;48.234;14.320;2023-04-25T07:40:24;97789.00;;;20.80
11321;BMP180;5715;48.234;14.320;2023-04-25T07:43:11;97798.00;;;20.70
11321;BMP180;5715;48.234;14.320;2023-04-25T07:46:02;97785.00;;;21.20
11321;BMP180;5715;48.234;14.320;2023-04-25T07:48:50;97791.00;;;21.60
11321;BMP180;5715;48.234;14.320;2023-04-25T07:51:38;97789.00;;;21.70
11321;BMP180;5715;48.234;14.320;2023-04-25T07:54:25;97782.00;;;22.10
11321;BMP180;5715;48.234;14.320;2023-04-25T07:57:13;97781.00;;;21.90
11321;BMP180;5715;48.234;14.320;2023-04-25T08:00:01;97787.00;;;22.10
11321;BMP180;5715;48.234;14.320;2023-04-25T08:02:48;97782.00;;;21.90
11321;BMP180;5715;48.234;14.320;2023-04-25T08:05:38;97789.00;;;21.90
11321;BMP180;5715;48.234;14.320;2023-04-25T08:08:26;97781.00;;;21.60
11321;BMP180;5715;48.234;14.320;2023-04-25T08:11:13;97794.00;;;21.00
11321;BMP180;5715;48.234;14.320;2023-04-25T08:14:01;97770.00;;;21.30
11321;BMP180;5715;48.234;14.320;2023-04-25T08:16:48;97769.00;;;21.30
11321;BMP180;5715;48.234;14.320;2023-04-25T08:19:36;97770.00;;;21.50
11321;BMP180;5715;48.234;14.320;2023-04-25T08:22:24;97775.00;;;21.40
11321;BMP180;5715;48.234;14.320;2023-04-25T08:25:12;97772.00;;;21.60
11321;BMP180;5715;48.234;14.320;2023-04-25T08:27:59;97768.00;;;21.10
11321;BMP180;5715;48.234;14.320;2023-04-25T08:30:49;97756.00;;;21.70
11321;BMP180;5715;48.234;14.320;2023-04-25T08:33:37;97756.00;;;22.10
11321;BMP180;5715;48.234;14.320;2023-04-25T08:36:25;97767.00;;;22.10
11321;BMP180;5715;48.234;14.320;2023-04-25T08:39:26;97759.00;;;22.40
11321;BMP180;5715;48.234;14.320;2023-04-25T08:42:15;97757.00;;;22.20
11321;BMP180;5715;48.234;14.320;2023-04-25T08:45:03;97752.00;;;22.50
11321;BMP180;5715;48.234;14.320;2023-04-25T08:47:54;97766.00;;;22.90
11321;BMP180;5715;48.234;14.320;2023-04-25T08:50:55;97759.00;;;22.90
11321;BMP180;5715;48.234;14.320;2023-04-25T08:53:44;97770.00;;;23.10
11321;BMP180;5715;48.234;14.320;2023-04-25T08:56:33;97765.00;;;23.40
11321;BMP180;5715;48.234;14.320;2023-04-25T08:59:23;97760.00;;;23.10
11321;BMP180;5715;48.234;14.320;2023-04-25T09:02:11;97765.00;;;22.50
11321;BMP180;5715;48.234;14.320;2023-04-25T09:05:03;97773.00;;;22.70
11321;BMP180;5715;48.234;14.320;2023-04-25T09:07:51;97778.00;;;22.20
11321;BMP180;5715;48.234;14.320;2023-04-25T09:10:40;97781.00;;;21.80
11321;BMP180;5715;48.234;14.320;2023-04-25T09:13:28;97778.00;;;21.50
11321;BMP180;5715;48.234;14.320;2023-04-25T09:16:16;97776.00;;;21.20
11321;BMP180;5715;48.234;14.320;2023-04-25T09:19:06;97772.00;;;21.70
11321;BMP180;5715;48.234;14.320;2023-04-25T09:21:59;97775.00;;;22.20
11321;BMP180;5715;48.234;14.320;2023-04-25T09:24:47;97775.00;;;22.70
11321;BMP180;5715;48.234;14.320;2023-04-25T09:27:36;97772.00;;;23.20
11321;BMP180;5715;48.234;14.320;2023-04-25T09:30:36;97776.00;;;23.50
11321;BMP180;5715;48.234;14.320;2023-04-25T09:33:32;97776.00;;;23.20
11321;BMP180;5715;48.234;14.320;2023-04-25T09:36:27;97773.00;;;23.40
11321;BMP180;5715;48.234;14.320;2023-04-25T09:39:15;97777.00;;;23.70
11321;BMP180;5715;48.234;14.320;2023-04-25T09:42:04;97773.00;;;24.20
11321;BMP180;5715;48.234;14.320;2023-04-25T09:44:54;97775.00;;;23.90
11321;BMP180;5715;48.234;14.320;2023-04-25T09:47:42;97773.00;;;23.70
11321;BMP180;5715;48.234;14.320;2023-04-25T09:50:31;97774.00;;;23.70
11321;BMP180;5715;48.234;14.320;2023-04-25T09:53:18;97786.00;;;23.50
11321;BMP180;5715;48.234;14.320;2023-04-25T09:56:09;97761.00;;;22.90
11321;BMP180;5715;48.234;14.320;2023-04-25T09:58:58;97777.00;;;23.10
11321;BMP180;5715;48.234;14.320;2023-04-25T10:01:47;97777.00;;;23.80
11321;BMP180;5715;48.234;14.320;2023-04-25T10:04:37;97777.00;;;23.70
11321;BMP180;5715;48.234;14.320;2023-04-25T10:07:29;97769.00;;;24.20
11321;BMP180;5715;48.234;14.320;2023-04-25T10:10:18;97762.00;;;23.60
11321;BMP180;5715;48.234;14.320;2023-04-25T10:13:07;97762.00;;;24.10
11321;BMP180;5715;48.234;14.320;2023-04-25T10:16:00;97754.00;;;24.50
11321;BMP180;5715;48.234;14.320;2023-04-25T10:18:51;97751.00;;;24.80
11321;BMP180;5715;48.234;14.320;2023-04-25T10:21:58;97758.00;;;25.20
11321;BMP180;5715;48.234;14.320;2023-04-25T10:24:49;97752.00;;;25.40
11321;BMP180;5715;48.234;14.320;2023-04-25T10:27:39;97753.00;;;25.10
11321;BMP180;5715;48.234;14.320;2023-04-25T10:30:27;97761.00;;;24.30
11321;BMP180;5715;48.234;14.320;2023-04-25T10:33:17;97770.00;;;24.30
11321;BMP180;5715;48.234;14.320;2023-04-25T10:36:19;97773.00;;;22.90
11321;BMP180;5715;48.234;14.320;2023-04-25T10:39:08;97789.00;;;22.10
11321;BMP180;5715;48.234;14.320;2023-04-25T10:41:58;97796.00;;;21.20
11321;BMP180;5715;48.234;14.320;2023-04-25T10:45:04;97797.00;;;20.70
11321;BMP180;5715;48.234;14.320;2023-04-25T10:47:52;97794.00;;;20.40
11321;BMP180;5715;48.234;14.320;2023-04-25T10:50:39;97786.00;;;20.70
11321;BMP180;5715;48.234;14.320;2023-04-25T10:53:33;97798.00;;;20.70
11321;BMP180;5715;48.234;14.320;2023-04-25T10:56:29;97805.00;;;20.40
11321;BMP180;5715;48.234;14.320;2023-04-25T10:59:18;97803.00;;;20.10
11321;BMP180;5715;48.234;14.320;2023-04-25T11:02:12;97816.00;;;20.20
11321;BMP180;5715;48.234;14.320;2023-04-25T11:05:01;97823.00;;;20.20
11321;BMP180;5715;48.234;14.320;2023-04-25T11:07:54;97834.00;;;19.90
11321;BMP180;5715;48.234;14.320;2023-04-25T11:10:47;97854.00;;;18.80
11321;BMP180;5715;48.234;14.320;2023-04-25T11:13:37;97865.00;;;18.50
11321;BMP180;5715;48.234;14.320;2023-04-25T11:16:25;97867.00;;;18.50
11321;BMP180;5715;48.234;14.320;2023-04-25T11:19:14;97854.00;;;18.30
11321;BMP180;5715;48.234;14.320;2023-04-25T11:22:03;97864.00;;;18.10
11321;BMP180;5715;48.234;14.320;2023-04-25T11:24:51;97873.00;;;18.30
11321;BMP180;5715;48.234;14.320;2023-04-25T11:30:40;97849.00;;;18.50
11321;BMP180;5715;48.234;14.320;2023-04-25T11:33:36;97845.00;;;18.80
11321;BMP180;5715;48.234;14.320;2023-04-25T11:36:24;97846.00;;;18.80
11321;BMP180;5715;48.234;14.320;2023-04-25T11:39:13;97840.00;;;19.20
11321;BMP180;5715;48.234;14.320;2023-04-25T11:42:04;97835.00;;;19.50
11321;BMP180;5715;48.234;14.320;2023-04-25T11:45:00;97835.00;;;19.70
11321;BMP180;5715;48.234;14.320;2023-04-25T11:47:49;97839.00;;;20.20
11321;BMP180;5715;48.234;14.320;2023-04-25T11:50:39;97840.00;;;20.70
11321;BMP180;5715;48.234;14.320;2023-04-25T11:53:27;97834.00;;;20.70
11321;BMP180;5715;48.234;14.320;2023-04-25T11:56:15;97841.00;;;20.70
11321;BMP180;5715;48.234;14.320;2023-04-25T11:59:05;97831.00;;;21.20
11321;BMP180;5715;48.234;14.320;2023-04-25T12:01:54;97839.00;;;21.00
11321;BMP180;5715;48.234;14.320;2023-04-25T12:04:41;97838.00;;;21.20
11321;BMP180;5715;48.234;14.320;2023-04-25T12:07:30;97824.00;;;21.80
11321;BMP180;5715;48.234;14.320;2023-04-25T12:10:20;97819.00;;;22.00
11321;BMP180;5715;48.234;14.320;2023-04-25T12:13:26;97822.00;;;22.00
11321;BMP180;5715;48.234;14.320;2023-04-25T12:16:15;97823.00;;;21.70
11321;BMP180;5715;48.234;14.320;2023-04-25T12:19:03;97822.00;;;22.00
11321;BMP180;5715;48.234;14.320;2023-04-25T12:21:51;97819.00;;;21.80
11321;BMP180;5715;48.234;14.320;2023-04-25T12:24:45;97814.00;;;22.60
11321;BMP180;5715;48.234;14.320;2023-04-25T12:27:33;97812.00;;;22.30
11321;BMP180;5715;48.234;14.320;2023-04-25T12:30:21;97795.00;;;22.70
11321;BMP180;5715;48.234;14.320;2023-04-25T12:33:08;97792.00;;;22.80
11321;BMP180;5715;48.234;14.320;2023-04-25T12:35:57;97793.00;;;22.60
11321;BMP180;5715;48.234;14.320;2023-04-25T12:38:45;97794.00;;;22.70
11321;BMP180;5715;48.234;14.320;2023-04-25T12:41:33;97795.00;;;23.60
11321;BMP180;5715;48.234;14.320;2023-04-25T12:44:21;97789.00;;;23.90
11321;BMP180;5715;48.234;14.320;2023-04-25T12:47:09;97790.00;;;23.60
11321;BMP180;5715;48.234;14.320;2023-04-25T12:49:57;97787.00;;;23.30
11321;BMP180;5715;48.234;14.320;2023-04-25T12:52:45;97836.00;;;21.80
11321;BMP180;5715;48.234;14.320;2023-04-25T12:55:33;97838.00;;;20.60
11321;BMP180;5715;48.234;14.320;2023-04-25T12:58:21;97845.00;;;18.80
11321;BMP180;5715;48.234;14.320;2023-04-25T13:01:08;97856.00;;;17.00
11321;BMP180;5715;48.234;14.320;2023-04-25T13:03:56;97848.00;;;16.00
11321;BMP180;5715;48.234;14.320;2023-04-25T13:06:44;97846.00;;;15.50
11321;BMP180;5715;48.234;14.320;2023-04-25T13:09:31;97832.00;;;16.20
11321;BMP180;5715;48.234;14.320;2023-04-25T13:12:19;97821.00;;;15.90
11321;BMP180;5715;48.234;14.320;2023-04-25T13:15:08;97819.00;;;16.30
11321;BMP180;5715;48.234;14.320;2023-04-25T13:17:56;97816.00;;;16.70
11321;BMP180;5715;48.234;14.320;2023-04-25T13:20:44;97812.00;;;18.50
11321;BMP180;5715;48.234;14.320;2023-04-25T13:23:31;97801.00;;;19.40
11321;BMP180;5715;48.234;14.320;2023-04-25T13:26:19;97808.00;;;19.80
11321;BMP180;5715;48.234;14.320;2023-04-25T13:29:06;97807.00;;;19.80
11321;BMP180;5715;48.234;14.320;2023-04-25T13:31:56;97806.00;;;21.20
11321;BMP180;5715;48.234;14.320;2023-04-25T13:34:44;97804.00;;;21.40
11321;BMP180;5715;48.234;14.320;2023-04-25T13:37:32;97807.00;;;21.50
11321;BMP180;5715;48.234;14.320;2023-04-25T13:40:20;97804.00;;;21.30
11321;BMP180;5715;48.234;14.320;2023-04-25T13:43:11;97815.00;;;21.50
11321;BMP180;5715;48.234;14.320;2023-04-25T13:45:59;97813.00;;;21.50
11321;BMP180;5715;48.234;14.320;2023-04-25T13:48:47;97819.00;;;21.20
11321;BMP180;5715;48.234;14.320;2023-04-25T13:51:35;97825.00;;;21.00
11321;BMP180;5715;48.234;14.320;2023-04-25T13:54:23;97832.00;;;21.20
11321;BMP180;5715;48.234;14.320;2023-04-25T13:57:11;97826.00;;;21.30
11321;BMP180;5715;48.234;14.320;2023-04-25T13:59:58;97829.00;;;21.40
11321;BMP180;5715;48.234;14.320;2023-04-25T14:02:46;97838.00;;;21.50
11321;BMP180;5715;48.234;14.320;2023-04-25T14:05:37;97840.00;;;21.10
11321;BMP180;5715;48.234;14.320;2023-04-25T14:08:26;97830.00;;;21.00
11321;BMP180;5715;48.234;14.320;2023-04-25T14:11:13;97843.00;;;20.10
11321;BMP180;5715;48.234;14.320;2023-04-25T14:14:01;97855.00;;;20.30
11321;BMP180;5715;48.234;14.320;2023-04-25T14:16:49;97850.00;;;20.70
11321;BMP180;5715;48.234;14.320;2023-04-25T14:19:37;97854.00;;;20.80
11321;BMP180;5715;48.234;14.320;2023-04-25T14:22:30;97856.00;;;20.80
11321;BMP180;5715;48.234;14.320;2023-04-25T14:25:17;97847.00;;;21.40
11321;BMP180;5715;48.234;14.320;2023-04-25T14:28:05;97843.00;;;21.40
11321;BMP180;5715;48.234;14.320;2023-04-25T14:30:53;97844.00;;;21.30
11321;BMP180;5715;48.234;14.320;2023-04-25T14:33:41;97848.00;;;21.50
11321;BMP180;5715;48.234;14.320;2023-04-25T14:36:30;97850.00;;;21.60
11321;BMP180;5715;48.234;14.320;2023-04-25T14:39:19;97847.00;;;21.80
11321;BMP180;5715;48.234;14.320;2023-04-25T14:42:07;97851.00;;;21.70
11321;BMP180;5715;48.234;14.320;2023-04-25T14:44:54;97850.00;;;21.60
11321;BMP180;5715;48.234;14.320;2023-04-25T14:47:42;97849.00;;;21.50
11321;BMP180;5715;48.234;14.320;2023-04-25T14:50:30;97857.00;;;21.40
11321;BMP180;5715;48.234;14.320;2023-04-25T14:53:17;97859.00;;;21.10
11321;BMP180;5715;48.234;14.320;2023-04-25T14:56:05;97854.00;;;21.70
11321;BMP180;5715;48.234;14.320;2023-04-25T14:58:53;97852.00;;;21.30
11321;BMP180;5715;48.234;14.320;2023-04-25T15:01:40;97846.00;;;21.60
11321;BMP180;5715;48.234;14.320;2023-04-25T15:04:28;97855.00;;;21.90
11321;BMP180;5715;48.234;14.320;2023-04-25T15:07:16;97856.00;;;21.20
11321;BMP180;5715;48.234;14.320;2023-04-25T15:10:06;97869.00;;;21.60
11321;BMP180;5715;48.234;14.320;2023-04-25T15:12:58;97870.00;;;22.40
11321;BMP180;5715;48.234;14.320;2023-04-25T15:15:46;97864.00;;;22.00
11321;BMP180;5715;48.234;14.320;2023-04-25T15:18:38;97867.00;;;22.50
11321;BMP180;5715;48.234;14.320;2023-04-25T15:21:26;97871.00;;;22.50
11321;BMP180;5715;48.234;14.320;2023-04-25T15:24:13;97872.00;;;22.50
11321;BMP180;5715;48.234;14.320;2023-04-25T15:27:02;97872.00;;;22.70
11321;BMP180;5715;48.234;14.320;2023-04-25T15:29:51;97883.00;;;22.50
11321;BMP180;5715;48.234;14.320;2023-04-25T15:32:40;97890.00;;;22.50
11321;BMP180;5715;48.234;14.320;2023-04-25T15:35:27;97884.00;;;22.20
11321;BMP180;5715;48.234;14.320;2023-04-25T15:38:15;97887.00;;;21.90
11321;BMP180;5715;48.234;14.320;2023-04-25T15:41:03;97891.00;;;21.20
11321;BMP180;5715;48.234;14.320;2023-04-25T15:43:53;97891.00;;;21.00
11321;BMP180;5715;48.234;14.320;2023-04-25T15:46:41;97901.00;;;20.80
11321;BMP180;5715;48.234;14.320;2023-04-25T15:49:30;97909.00;;;20.60
11321;BMP180;5715;48.234;14.320;2023-04-25T15:52:18;97904.00;;;20.30
11321;BMP180;5715;48.234;14.320;2023-04-25T15:55:09;97906.00;;;20.20
11321;BMP180;5715;48.234;14.320;2023-04-25T15:57:57;97909.00;;;20.50
11321;BMP180;5715;48.234;14.320;2023-04-25T16:00:44;97900.00;;;20.50
11321;BMP180;5715;48.234;14.320;2023-04-25T16:03:35;97915.00;;;20.50
11321;BMP180;5715;48.234;14.320;2023-04-25T16:06:25;97918.00;;;20.20
11321;BMP180;5715;48.234;14.320;2023-04-25T16:09:12;97937.00;;;20.50
11321;BMP180;5715;48.234;14.320;2023-04-25T16:12:00;97939.00;;;20.30
11321;BMP180;5715;48.234;14.320;2023-04-25T16:14:47;97956.00;;;19.90